Aviation Digital Data Service (ADDS)

Output produced by METARs form (2051 UTC 24 June 2018)
found at http://www.aviationweather.gov/adds/metars/
 
DAUA 241900Z 24008KT CAVOK 42/// Q1009
TAF DAUA 241700Z 2418/2518 22012KT CAVOK 
     BECMG 2420/2423 VRB02KT 
     BECMG 2510/2513 26012KT
       
DABB 241900Z 01011KT 9999 FEW023 SCT100 23/18 Q1013
TAF DABB 241700Z 2418/2518 02014KT 9999 FEW026 SCT090 
     PROB30 
     TEMPO 2418/2422 FEW030TCU 
     BECMG 2422/2424 VRB02KT 
     TEMPO 2501/2507 2000 BR BKN010 
     BECMG 2509/2511 29012KT
       
DABT 241900Z 36010KT 9999 FEW026 SCT200 29/12 Q1017
TAF DABT 241700Z 2418/2518 36014KT 9999 FEW026 
     TEMPO 2418/2420 FEW026CB 
     BECMG 2420/2422 VRB02KT
       
DAOR 241900Z 18006KT CAVOK 37/M01 Q1015
TAF DAOR 242000Z 2421/2506 20008KT CAVOK
       
DAAE 241900Z 05006KT 9999 FEW016 24/20 Q1014
TAF DAAE 241700Z 2418/2518 08010KT 9999 FEW020 
     PROB30 
     TEMPO 2418/2420 FEW030TCU 
     BECMG 2420/2422 VRB02KT 
     TEMPO 2500/2506 2000 BR SCT008
       
DAUB 241900Z 22004KT 9999 FEW033TCU 38/13 Q1009
TAF DAUB 241700Z 2418/2518 22014KT 9999 FEW040 
     TEMPO 2418/2420 FEW033TCU 
     BECMG 2418/2420 04014KT
       
DATM 241800Z 16020KT 3000 DRSA SCT046 SCT100 38/15 Q1011 RESS
TAF DATM 241700Z 2418/2503 22010KT 0600 BLSA SCT046 SCT100 
     TEMPO 2418/2421 3000 HZ 
     PROB40 
     TEMPO 2418/2422 VRB15G25KT 5000 -TSRA FEW040CB 
     BECMG 2420/2423 VRB02KT
       
DAAD 241800Z 32010KT 9999 FEW030 38/05 Q1012
TAF DAAD 241700Z 2418/2503 34012KT 9999 FEW030 
     PROB30 
     TEMPO 2418/2421 FEW033CB
       
DAOI 241900Z 05008KT CAVOK 35/16 Q1011
TAF DAOI 241700Z 2418/2518 35010KT CAVOK 
     BECMG 2421/2424 VRB02KT 
     BECMG 2509/2512 36012KT
       
DABC 241900Z 35006KT 9999 FEW026 SCT100 24/13 Q1016
TAF DABC 241700Z 2418/2518 34012KT 9999 FEW023 SCT090 
     PROB30 
     TEMPO 2418/2420 FEW026CB 
     BECMG 2421/2423 02008KT 
     BECMG 2410/2512 35012KT
       
DAAG 241900Z 04009KT 9999 SCT023 23/20 Q1015
TAF DAAG 241700Z 2418/2518 04010KT CAVOK 
     BECMG 2419/2422 VRB02KT 
     BECMG 2509/2512 03010KT
       
DAAJ 241900Z 01009KT CAVOK 30/// Q1016
TAF DAAJ 241700Z 2418/2518 32010KT CAVOK 
     BECMG 2420/2423 06008KT
       
DAUE 241900Z 00000KT 9999 FEW040 37/13 Q1013
DAUO 241900Z 26002KT CAVOK 37/12 Q1010
TAF DAUO 242000Z 2421/2506 14010KT CAVOK 
     BECMG 2501/2504 08012KT
       
DAUG 241944Z /////KT 5000 DRSA SCT040 SCT100 38/02 Q1014
TAF DAUG 241700Z 2418/2518 28008KT 8000 SCT040 
     BECMG 2421/2424 12010KT 
     BECMG 2508/2511 24012KT
       
DAUH 241900Z 36005KT CAVOK 39/08 Q1011
TAF DAUH 241700Z 2418/2518 30012KT 9999 FEW040 
     BECMG 2419/2422 06010KT 
     BECMG 2500/2503 18012KT 
     BECMG 2506/2510 28014KT 
     PROB40 2509/2513 28015G25KT 4000 DRSA 
     BECMG 2515/1518 02012KT
       
DAAP 241900Z 02010KT CAVOK 37/05 Q1012
TAF DAAP 242000Z 2421/2506 06010KT 8000 FEW046 
     BECMG 2423/2502 20008KT
       
DAUZ 241900Z 02007KT 9999 FEW046 36/01 Q1014
TAF DAUZ 241700Z 2418/2518 02010KT 9999 FEW046 
     BECMG 2504/2507 22012KT 
     PROB40 2506/2510 22022KT 4000 DRSA 
     BECMG 2510/2513 34012KT
       
DAUI 241900Z 04010KT CAVOK 40/01 Q1009
TAF DAUI 241700Z 2418/2518 08012KT CAVOK 
     BECMG 2510/2513 VRB02KT
       
DAAV 241900Z 36003KT CAVOK 24/18 Q1014
TAF DAAV 241700Z 2418/2518 36010KT 9999 FEW020 
     PROB30 
     TEMPO 2418/2420 FEW030TCU 
     BECMG 2420/2422 VRB02KT 
     TEMPO 2500/2506 2000 BR SCT008
       
DAUL 241800Z 28018KT 7000 FEW030CB BKN033 36/05 Q1015
TAF DAUL 242000Z 2421/2506 26010KT 7000 SCT033 
     PROB40 
     TEMPO 2418/2522 35015G25KT 5000 -TSRA FEW030CB
       
DAOV 241900Z 35010KT CAVOK 35/08 Q1013
TAF DAOV 241700Z 2418/2503 34014KT 9999 FEW033 
     BECMG 2420/2423 VRB02KT
       
DAAY 241800Z 22008KT 7000 SCT026 35/05 Q1020
TAF DAAY 241700Z 2418/2503 22014KT 7000 SCT026 
     BECMG 2420/2423 VRB02KT
       
DAOO 241900Z 01006KT 9999 SCT026 27/17 Q1010
TAF DAOO 241700Z 2418/2518 35010KT 9999 FEW020 
     BECMG 2421/2424 27013KT 
     PROB30 
     TEMPO 2502/2508 VRB02KT 4000 BR SCT010
       
DAOL 241900Z 04012KT 7000 NSC 26/19 Q1011
DAUU 241900Z 35005KT 9999 SCT040 39/04 Q1010
TAF DAUU 242000Z 2421/2506 36010KT 9999 FEW046 
     BECMG 2423/2501 13012KT
       
DAAS 241900Z 34006KT 9999 FEW030 25/08 Q1019
TAF DAAS 241700Z 2418/2518 34012KT 9999 FEW026 
     PROB30 
     TEMPO 2418/2420 FEW026CB 
     BECMG 2420/2422 VRB02KT
       
DAAT 241900Z 18006KT 3000 HZ SCT046TCU BKN100 29/07 Q1022
TAF DAAT 241700Z 2418/2518 02010KT 3000 HZ FEW040 
     PROB40 
     TEMPO 2418/2422 VRB15G25KT 5000 -TSRA FEW040CB SCT046TCU 
     BECMG 2419/2422 6000 NSW 
     BECMG 2503/2506 14012KT 
     TEMPO 2506/2510 15015G25KT 
     BECMG 2511/2513 32010KT
       
DABS 241900Z 34006KT 9999 FEW040 SCT200 28/08 Q1016
TAF DABS 241700Z 2418/2518 36014KT 9999 FEW033 
     TEMPO 2418/2422 FEW030CB 
     BECMG 2420/2422 02008KT 
     BECMG 2508/2510 32012KT
       
DAOB 241900Z 34006KT 9999 FEW026 30/10 Q1018
TAF DAOB 241700Z 2418/2518 32012KT 9999 FEW026 
     BECMG 2419/2422 VRB02KT 
     BECMG 2511/2513 35012KT
       
DAFH 241800Z 36026KT 9999 DRDU SCT030 35/07 Q1016
TAF DAFH 241700Z 2418/2503 36008KT 9999 FEW030 
     PROB40 
     TEMPO 2418/2522 35015G25KT 5000 -TSRA FEW033CB
       
DAUT 241900Z 23006KT CAVOK 42/// Q1009
TAF DAUT 242000Z 2421/2506 12008KT CAVOK
       
DAOF 241900Z 28018KT CAVOK 32/00 Q1012
TAF DAOF 242000Z 2421/2506 28016KT CAVOK
       
DAON 241900Z 34007KT 9999 FEW026 SCT233 26/19 Q1011
TAF DAON 241700Z 2418/2518 34010KT 9999 FEW026 SCT233 
     BECMG 2421/2424 VRB02KT 
     PROB30 
     TEMPO 2502/2508 4000 BR SCT010 
     BECMG 2509/2512 36012KT
       
DAUK 241938Z 02006KT 9999 FEW030CB SCT040 35/06 Q1009
TAF DAUK 242000Z 2421/2506 06010KT 9999 FEW033 
     TEMPO 2421/2524 FEW030CB 
     BECMG 2423/2502 20010KT